createdAt,value
2022-08-19T00:00:22.941Z,100535.94
2022-08-19T00:03:43.948Z,100534.78
2022-08-19T00:07:05.948Z,100541.00
2022-08-19T00:10:28.961Z,100540.31
2022-08-19T00:13:49.978Z,100548.72
2022-08-19T00:17:10.965Z,100545.34
2022-08-19T00:20:33.948Z,100539.69
2022-08-19T00:23:55.964Z,100554.66
2022-08-19T00:27:26.511Z,100561.44
2022-08-19T00:30:47.956Z,100554.97
2022-08-19T00:34:10.958Z,100555.88
2022-08-19T00:37:32.976Z,100558.38
2022-08-19T00:40:57.945Z,100564.38
2022-08-19T00:44:27.963Z,100569.50
2022-08-19T00:47:48.952Z,100562.03
2022-08-19T00:51:09.967Z,100571.22
2022-08-19T00:54:31.954Z,100571.69
2022-08-19T00:57:55.976Z,100585.16
2022-08-19T01:01:19.057Z,100590.63
2022-08-19T01:04:39.968Z,100593.75
2022-08-19T01:08:01.991Z,100602.34
2022-08-19T01:11:22.971Z,100598.97
2022-08-19T01:14:44.970Z,100601.69
2022-08-19T01:18:07.974Z,100607.06
2022-08-19T01:21:44.989Z,100610.47
2022-08-19T01:25:06.986Z,100600.00
2022-08-19T01:28:42.299Z,100600.91
2022-08-19T01:32:02.964Z,100601.88
2022-08-19T01:35:25.993Z,100602.59
2022-08-19T01:38:51.982Z,100599.63
2022-08-19T01:42:13.982Z,100600.69
2022-08-19T01:45:37.965Z,100595.25
2022-08-19T01:48:59.982Z,100600.97
2022-08-19T01:52:20.981Z,100599.34
2022-08-19T01:55:41.980Z,100591.66
2022-08-19T01:59:11.977Z,100589.78
2022-08-19T02:02:32.993Z,100587.75
2022-08-19T02:05:55.002Z,100576.97
2022-08-19T02:09:16.979Z,100563.75
2022-08-19T02:12:37.976Z,100565.59
2022-08-19T02:15:59.012Z,100605.84
2022-08-19T02:19:22.015Z,100613.69
2022-08-19T02:22:43.147Z,100609.81
2022-08-19T02:26:06.004Z,100618.78
2022-08-19T02:29:27.004Z,100617.75
2022-08-19T02:32:48.016Z,100614.06
2022-08-19T02:36:08.989Z,100617.13
2022-08-19T02:39:30.074Z,100610.16
2022-08-19T02:42:51.005Z,100620.28
2022-08-19T02:46:12.026Z,100620.66
2022-08-19T02:49:34.810Z,100617.59
2022-08-19T02:52:56.024Z,100620.59
2022-08-19T02:56:22.033Z,100629.13
2022-08-19T02:59:39.095Z,100631.78
2022-08-19T03:02:54.081Z,100621.78
2022-08-19T03:06:27.037Z,100631.31
2022-08-19T03:09:47.999Z,100627.88
2022-08-19T03:13:11.020Z,100625.44
2022-08-19T03:16:37.998Z,100623.47
2022-08-19T03:19:59.022Z,100634.47
2022-08-19T03:23:21.004Z,100636.28
2022-08-19T03:26:42.027Z,100639.34
2022-08-19T03:30:03.005Z,100644.19
2022-08-19T03:33:27.612Z,100641.91
2022-08-19T03:36:49.051Z,100635.16
2022-08-19T03:40:16.359Z,100632.50
2022-08-19T03:43:37.006Z,100631.91
2022-08-19T03:46:58.062Z,100631.91
2022-08-19T03:50:20.001Z,100627.00
2022-08-19T03:53:42.029Z,100629.00
2022-08-19T03:57:05.041Z,100635.03
2022-08-19T04:00:27.017Z,100625.34
2022-08-19T04:03:48.087Z,100629.13
2022-08-19T04:07:09.012Z,100626.56
2022-08-19T04:10:30.056Z,100632.16
2022-08-19T04:13:53.026Z,100640.06
2022-08-19T04:17:16.071Z,100647.78
2022-08-19T04:20:38.040Z,100649.50
2022-08-19T04:23:59.055Z,100642.75
2022-08-19T04:27:20.026Z,100646.81
2022-08-19T04:30:41.052Z,100649.16
2022-08-19T04:34:02.048Z,100642.47
2022-08-19T04:37:23.054Z,100654.53
2022-08-19T04:41:02.035Z,100652.47
2022-08-19T04:44:26.063Z,100660.63
2022-08-19T04:47:57.817Z,100657.41
2022-08-19T04:51:23.032Z,100653.16
2022-08-19T04:54:44.031Z,100645.59
2022-08-19T04:58:08.061Z,100649.50
2022-08-19T05:01:33.126Z,100649.38
2022-08-19T05:04:54.040Z,100652.59
2022-08-19T05:08:15.290Z,100643.56
2022-08-19T05:11:41.046Z,100644.16
2022-08-19T05:15:02.042Z,100646.81
2022-08-19T05:18:42.048Z,100644.72
2022-08-19T05:22:22.061Z,100652.78
2022-08-19T05:25:43.054Z,100652.97
2022-08-19T05:29:05.064Z,100651.78
2022-08-19T05:32:26.060Z,100649.88
2022-08-19T05:35:47.083Z,100647.22
2022-08-19T05:39:09.053Z,100651.09
2022-08-19T05:42:31.064Z,100649.13
2022-08-19T05:45:55.067Z,100649.72
2022-08-19T05:49:16.082Z,100650.31
2022-08-19T05:52:37.053Z,100654.72
2022-08-19T05:55:58.073Z,100659.09
2022-08-19T05:59:22.061Z,100656.47
2022-08-19T06:02:46.114Z,100652.44
2022-08-19T06:06:10.060Z,100653.31
2022-08-19T06:09:31.090Z,100652.78
2022-08-19T06:12:52.069Z,100653.00
2022-08-19T06:16:13.072Z,100659.97
2022-08-19T06:19:40.490Z,100660.34
2022-08-19T06:23:03.080Z,100660.41
2022-08-19T06:26:27.054Z,100665.06
2022-08-19T06:29:48.073Z,100662.59
2022-08-19T06:33:12.084Z,100660.97
2022-08-19T06:36:41.082Z,100663.97
2022-08-19T06:40:03.137Z,100660.00
2022-08-19T06:43:24.072Z,100657.31
2022-08-19T06:46:54.846Z,100651.31
2022-08-19T06:50:16.083Z,100650.94
2022-08-19T06:53:37.095Z,100660.38
2022-08-19T06:56:58.080Z,100657.94
2022-08-19T07:00:22.164Z,100643.00
2022-08-19T07:03:48.080Z,100659.28
2022-08-19T07:07:24.099Z,100666.66
2022-08-19T07:10:45.108Z,100658.09
2022-08-19T07:14:06.135Z,100654.97
2022-08-19T07:17:28.084Z,100654.28
2022-08-19T07:20:49.113Z,100648.22
2022-08-19T07:24:11.092Z,100652.84
2022-08-19T07:27:33.578Z,100651.78
2022-08-19T07:30:54.077Z,100649.97
2022-08-19T07:34:16.105Z,100656.72
2022-08-19T07:37:39.100Z,100667.44
2022-08-19T07:41:00.109Z,100669.84
2022-08-19T07:44:22.081Z,100666.34
2022-08-19T07:47:49.136Z,100676.50
2022-08-19T07:51:16.098Z,100666.84
2022-08-19T07:54:50.094Z,100669.53
2022-08-19T07:58:12.109Z,100676.81
2022-08-19T08:01:41.839Z,100674.34
2022-08-19T08:05:21.122Z,100679.47
2022-08-19T08:09:00.114Z,100680.81
2022-08-19T08:12:34.590Z,100672.22
2022-08-19T08:15:56.446Z,100675.44
2022-08-19T08:19:25.280Z,100677.25
2022-08-19T08:22:58.089Z,100673.53
2022-08-19T08:26:20.118Z,100675.16
2022-08-19T08:29:45.111Z,100678.91
2022-08-19T08:33:06.178Z,100684.56
2022-08-19T08:36:27.116Z,100684.28
2022-08-19T08:39:48.403Z,100686.94
2022-08-19T08:43:32.404Z,100684.81
2022-08-19T08:47:02.126Z,100679.97
2022-08-19T08:50:30.149Z,100682.34
2022-08-19T08:53:44.346Z,100687.44
2022-08-19T08:57:00.121Z,100679.13
2022-08-19T09:00:29.122Z,100682.59
2022-08-19T09:03:53.165Z,100690.41
2022-08-19T09:07:34.770Z,100696.06
2022-08-19T09:11:08.155Z,100687.47
2022-08-19T09:15:10.116Z,100689.38
2022-08-19T09:18:31.135Z,100687.78
2022-08-19T09:21:53.116Z,100687.47
2022-08-19T09:25:14.156Z,100686.69
2022-08-19T09:28:36.120Z,100696.09
2022-08-19T09:32:00.117Z,100692.88
2022-08-19T09:35:21.133Z,100698.22
2022-08-19T09:39:16.083Z,100694.13
2022-08-19T09:42:37.144Z,100700.84
2022-08-19T09:45:58.132Z,100687.41
2022-08-19T09:49:19.182Z,100701.09
2022-08-19T09:52:40.140Z,100704.59
2022-08-19T09:56:17.152Z,100693.06
2022-08-19T09:59:40.143Z,100710.50
2022-08-19T10:03:01.239Z,100698.75
2022-08-19T10:06:45.736Z,100702.22
2022-08-19T10:10:03.172Z,100702.41
2022-08-19T10:13:24.160Z,100706.44
2022-08-19T10:16:45.165Z,100709.97
2022-08-19T10:20:06.136Z,100719.94
2022-08-19T10:23:27.158Z,100715.34
2022-08-19T10:26:59.063Z,100726.88
2022-08-19T10:30:21.153Z,100721.78
2022-08-19T10:33:53.896Z,100729.81
2022-08-19T10:37:15.186Z,100716.94
2022-08-19T10:40:40.165Z,100723.09
2022-08-19T10:44:04.158Z,100720.94
2022-08-19T10:47:25.705Z,100730.03
2022-08-19T10:51:05.158Z,100724.44
2022-08-19T10:54:33.327Z,100729.53
2022-08-19T10:58:04.147Z,100726.06
2022-08-19T11:01:25.218Z,100734.38
2022-08-19T11:04:46.151Z,100731.44
2022-08-19T11:08:07.245Z,100727.97
2022-08-19T11:11:48.184Z,100718.28
2022-08-19T11:15:09.178Z,100722.25
2022-08-19T11:18:30.159Z,100716.59
2022-08-19T11:21:54.195Z,100710.91
2022-08-19T11:25:18.177Z,100716.28
2022-08-19T11:28:39.185Z,100705.50
2022-08-19T11:32:02.176Z,100711.34
2022-08-19T11:35:23.160Z,100710.03
2022-08-19T11:38:47.213Z,100708.44
2022-08-19T11:42:08.183Z,100709.22
2022-08-19T11:45:49.179Z,100707.53
2022-08-19T11:49:17.173Z,100710.25
2022-08-19T11:52:40.191Z,100702.50
2022-08-19T11:56:23.171Z,100713.19
2022-08-19T11:59:56.182Z,100713.94
2022-08-19T12:03:36.218Z,100704.31
2022-08-19T12:06:58.189Z,100700.31
2022-08-19T12:10:20.657Z,100698.66
2022-08-19T12:18:28.066Z,100693.41
2022-08-19T12:21:52.192Z,100692.06
2022-08-19T12:25:14.196Z,100686.09
2022-08-19T12:28:42.199Z,100691.34
2022-08-19T12:32:10.386Z,100673.25
2022-08-19T12:36:04.186Z,100694.13
2022-08-19T12:39:30.221Z,100687.38
2022-08-19T12:42:51.190Z,100693.94
2022-08-19T12:46:23.703Z,100689.56
2022-08-19T12:49:59.228Z,100669.34
2022-08-19T12:53:21.190Z,100681.25
2022-08-19T12:57:08.187Z,100684.75
2022-08-19T13:00:35.259Z,100683.56
2022-08-19T13:04:29.205Z,100676.56
2022-08-19T13:07:56.409Z,100692.13
2022-08-19T13:11:29.217Z,100683.91
2022-08-19T13:15:20.475Z,100689.13
2022-08-19T13:19:12.220Z,100686.75
2022-08-19T13:26:14.216Z,100686.28
2022-08-19T13:34:00.212Z,100693.78
2022-08-19T13:37:24.227Z,100698.78
2022-08-19T13:44:46.234Z,100706.13
2022-08-19T13:48:16.244Z,100706.34
2022-08-19T13:52:49.985Z,100699.66
2022-08-19T13:55:36.198Z,100704.28
2022-08-19T13:59:17.216Z,100705.44
2022-08-19T14:02:43.231Z,100703.81
2022-08-19T14:06:10.223Z,100709.44
2022-08-19T14:09:51.225Z,100707.25
2022-08-19T14:13:16.221Z,100705.69
2022-08-19T14:17:03.232Z,100714.25
2022-08-19T14:25:00.236Z,100702.97
2022-08-19T14:28:22.227Z,100714.28
2022-08-19T14:31:53.240Z,100721.38
2022-08-19T14:36:02.241Z,100719.41
2022-08-19T14:39:55.264Z,100719.34
2022-08-19T14:43:20.231Z,100722.75
2022-08-19T14:50:35.231Z,100722.38
2022-08-19T14:53:58.265Z,100720.19
2022-08-19T14:57:46.316Z,100713.91
2022-08-19T15:01:28.313Z,100731.97
2022-08-19T15:04:58.062Z,100735.91
2022-08-19T15:08:24.263Z,100737.81
2022-08-19T15:11:48.257Z,100731.75
2022-08-19T15:15:11.250Z,100727.66
2022-08-19T15:18:53.239Z,100723.28
2022-08-19T15:22:39.242Z,100729.78
2022-08-19T15:26:04.237Z,100728.03
2022-08-19T15:29:47.260Z,100737.94
2022-08-19T15:33:12.267Z,100735.25
2022-08-19T15:36:33.251Z,100750.13
2022-08-19T15:39:54.288Z,100761.00
2022-08-19T15:43:15.271Z,100756.66
2022-08-19T15:46:40.252Z,100759.19
2022-08-19T15:50:01.279Z,100772.69
2022-08-19T15:53:23.276Z,100762.78
2022-08-19T15:57:02.278Z,100767.56
2022-08-19T16:00:41.263Z,100772.78
2022-08-19T16:04:21.264Z,100766.28
2022-08-19T16:07:42.297Z,100777.16
2022-08-19T16:11:03.260Z,100779.94
2022-08-19T16:14:24.296Z,100789.19
2022-08-19T16:17:45.271Z,100785.56
2022-08-19T16:21:19.285Z,100789.63
2022-08-19T16:24:42.270Z,100785.22
2022-08-19T16:28:07.404Z,100788.50
2022-08-19T16:31:22.286Z,100787.94
2022-08-19T16:34:44.273Z,100787.69
2022-08-19T16:38:05.273Z,100789.03
2022-08-19T16:41:27.334Z,100793.63
2022-08-19T16:44:49.281Z,100791.75
2022-08-19T16:48:11.466Z,100802.34
2022-08-19T16:51:32.258Z,100813.97
2022-08-19T16:54:53.270Z,100813.59
2022-08-19T16:58:14.305Z,100819.63
2022-08-19T17:01:35.366Z,100833.81
2022-08-19T17:04:58.178Z,100836.97
2022-08-19T17:08:29.287Z,100849.47
2022-08-19T17:11:50.329Z,100843.91
2022-08-19T17:15:11.288Z,100853.69
2022-08-19T17:18:33.290Z,100848.16
2022-08-19T17:21:54.290Z,100844.00
2022-08-19T17:25:15.324Z,100851.16
2022-08-19T17:28:39.276Z,100844.16
2022-08-19T17:32:00.302Z,100846.56
2022-08-19T17:35:26.300Z,100839.50
2022-08-19T17:38:47.310Z,100849.97
2022-08-19T17:42:08.391Z,100848.69
2022-08-19T17:45:29.308Z,100852.13
2022-08-19T17:48:52.467Z,100853.25
2022-08-19T17:52:13.324Z,100859.59
2022-08-19T17:55:34.306Z,100862.31
2022-08-19T17:59:00.461Z,100858.75
2022-08-19T18:02:23.316Z,100862.91
2022-08-19T18:05:48.345Z,100866.44
2022-08-19T18:09:09.299Z,100854.53
2022-08-19T18:12:30.312Z,100855.41
2022-08-19T18:15:51.313Z,100860.78
2022-08-19T18:19:12.309Z,100863.28
2022-08-19T18:22:43.283Z,100864.38
2022-08-19T18:26:04.293Z,100865.25
2022-08-19T18:29:25.321Z,100871.44
2022-08-19T18:32:48.299Z,100879.84
2022-08-19T18:36:10.347Z,100882.72
2022-08-19T18:39:49.362Z,100884.63
2022-08-19T18:43:29.322Z,100873.25
2022-08-19T18:47:08.310Z,100866.22
2022-08-19T18:50:29.328Z,100868.69
2022-08-19T18:53:52.322Z,100867.94
2022-08-19T18:57:13.347Z,100874.47
2022-08-19T19:00:34.319Z,100871.44
2022-08-19T19:03:59.331Z,100875.72
2022-08-19T19:07:22.325Z,100878.16
2022-08-19T19:10:43.390Z,100880.19
2022-08-19T19:14:04.359Z,100872.88
2022-08-19T19:17:32.331Z,100881.50
2022-08-19T19:20:54.323Z,100882.28
2022-08-19T19:24:15.336Z,100879.47
2022-08-19T19:27:36.317Z,100882.56
2022-08-19T19:30:57.340Z,100876.44
2022-08-19T19:34:29.038Z,100881.78
2022-08-19T19:37:51.337Z,100878.75
2022-08-19T19:41:12.412Z,100882.81
2022-08-19T19:44:33.356Z,100883.69
2022-08-19T19:47:56.539Z,100883.28
2022-08-19T19:51:18.342Z,100889.59
2022-08-19T19:54:39.353Z,100888.63
2022-08-19T19:58:08.326Z,100903.69
2022-08-19T20:01:30.381Z,100888.47
2022-08-19T20:04:51.352Z,100890.53
2022-08-19T20:08:30.357Z,100895.03
2022-08-19T20:11:57.342Z,100893.25
2022-08-19T20:15:19.370Z,100892.47
2022-08-19T20:18:40.361Z,100894.31
2022-08-19T20:22:03.351Z,100902.66
2022-08-19T20:25:25.390Z,100905.75
2022-08-19T20:28:49.526Z,100910.41
2022-08-19T20:32:19.337Z,100908.38
2022-08-19T20:35:40.362Z,100913.06
2022-08-19T20:39:01.333Z,100909.00
2022-08-19T20:42:22.361Z,100909.84
2022-08-19T20:45:43.340Z,100914.53
2022-08-19T20:49:05.883Z,100917.38
2022-08-19T20:52:26.351Z,100921.88
2022-08-19T20:55:47.356Z,100922.91
2022-08-19T20:59:11.384Z,100922.28
2022-08-19T21:02:34.404Z,100923.09
2022-08-19T21:05:55.420Z,100923.72
2022-08-19T21:09:16.383Z,100923.94
2022-08-19T21:12:37.365Z,100930.41
2022-08-19T21:15:58.364Z,100935.28
2022-08-19T21:19:23.713Z,100933.47
2022-08-19T21:22:45.362Z,100931.25
2022-08-19T21:26:07.372Z,100934.88
2022-08-19T21:29:28.361Z,100936.91
2022-08-19T21:32:52.487Z,100936.28
2022-08-19T21:36:14.372Z,100935.28
2022-08-19T21:39:35.408Z,100935.91
2022-08-19T21:42:57.376Z,100936.50
2022-08-19T21:46:18.394Z,100936.91
2022-08-19T21:49:39.359Z,100936.50
2022-08-19T21:53:01.384Z,100932.84
2022-08-19T21:56:22.380Z,100937.31
2022-08-19T21:59:44.018Z,100942.38
2022-08-19T22:03:05.370Z,100937.31
2022-08-19T22:06:26.378Z,100941.78
2022-08-19T22:09:47.385Z,100943.97
2022-08-19T22:13:10.393Z,100937.88
2022-08-19T22:16:31.393Z,100945.78
2022-08-19T22:19:52.454Z,100948.63
2022-08-19T22:23:17.386Z,100949.81
2022-08-19T22:26:38.388Z,100953.88
2022-08-19T22:29:59.405Z,100957.09
2022-08-19T22:33:29.395Z,100955.25
2022-08-19T22:36:50.399Z,100954.22
2022-08-19T22:40:12.440Z,100954.63
2022-08-19T22:43:39.468Z,100950.34
2022-08-19T22:47:00.401Z,100961.09
2022-08-19T22:50:23.417Z,100966.38
2022-08-19T22:53:45.394Z,100963.91
2022-08-19T22:57:06.431Z,100969.53
2022-08-19T23:00:27.516Z,100959.75
2022-08-19T23:03:48.413Z,100975.13
2022-08-19T23:07:09.398Z,100973.94
2022-08-19T23:10:30.415Z,100976.72
2022-08-19T23:13:53.414Z,100966.38
2022-08-19T23:17:14.430Z,100980.97
2022-08-19T23:20:37.389Z,100979.56
2022-08-19T23:23:58.430Z,100988.44
2022-08-19T23:27:37.396Z,100990.88
2022-08-19T23:31:01.429Z,100988.78
2022-08-19T23:34:22.422Z,100984.28
2022-08-19T23:37:44.481Z,100986.91
2022-08-19T23:41:07.406Z,100988.69
2022-08-19T23:44:28.423Z,100997.16
2022-08-19T23:47:49.407Z,100996.09
2022-08-19T23:51:11.426Z,100990.56
2022-08-19T23:54:43.233Z,100997.88
2022-08-19T23:58:04.440Z,100997.00
